sensor_id;sensor_type;location;lat;lon;timestamp;P1;durP1;ratioP1;P2;durP2;ratioP2
14306;SDS011;7237;49.500;11.400;2023-04-15T00:00:38;6.83;;;6.23;;
14306;SDS011;7237;49.500;11.400;2023-04-15T00:03:07;6.83;;;6.20;;
14306;SDS011;7237;49.500;11.400;2023-04-15T00:05:34;7.50;;;6.43;;
14306;SDS011;7237;49.500;11.400;2023-04-15T00:08:02;7.37;;;6.63;;
14306;SDS011;7237;49.500;11.400;2023-04-15T00:10:29;7.30;;;6.60;;
14306;SDS011;7237;49.500;11.400;2023-04-15T00:12:56;7.03;;;6.20;;
14306;SDS011;7237;49.500;11.400;2023-04-15T00:15:23;6.07;;;5.50;;
14306;SDS011;7237;49.500;11.400;2023-04-15T00:17:51;6.80;;;6.20;;
14306;SDS011;7237;49.500;11.400;2023-04-15T00:20:19;6.70;;;6.00;;
14306;SDS011;7237;49.500;11.400;2023-04-15T00:22:46;7.37;;;5.93;;
14306;SDS011;7237;49.500;11.400;2023-04-15T00:25:13;7.63;;;6.07;;
14306;SDS011;7237;49.500;11.400;2023-04-15T00:27:40;6.70;;;6.00;;
14306;SDS011;7237;49.500;11.400;2023-04-15T00:30:08;6.57;;;5.90;;
14306;SDS011;7237;49.500;11.400;2023-04-15T00:32:35;6.33;;;5.83;;
14306;SDS011;7237;49.500;11.400;2023-04-15T00:35:03;7.20;;;5.80;;
14306;SDS011;7237;49.500;11.400;2023-04-15T00:37:31;6.00;;;5.50;;
14306;SDS011;7237;49.500;11.400;2023-04-15T00:39:59;6.47;;;5.97;;
14306;SDS011;7237;49.500;11.400;2023-04-15T00:42:26;6.13;;;5.53;;
14306;SDS011;7237;49.500;11.400;2023-04-15T00:44:54;6.10;;;5.50;;
14306;SDS011;7237;49.500;11.400;2023-04-15T00:47:21;6.60;;;5.90;;
14306;SDS011;7237;49.500;11.400;2023-04-15T00:49:49;6.50;;;5.90;;
14306;SDS011;7237;49.500;11.400;2023-04-15T00:52:16;6.53;;;5.90;;
14306;SDS011;7237;49.500;11.400;2023-04-15T00:54:44;5.97;;;5.47;;
14306;SDS011;7237;49.500;11.400;2023-04-15T00:57:11;6.73;;;6.13;;
14306;SDS011;7237;49.500;11.400;2023-04-15T00:59:38;6.37;;;5.77;;
14306;SDS011;7237;49.500;11.400;2023-04-15T01:02:05;8.00;;;6.07;;
14306;SDS011;7237;49.500;11.400;2023-04-15T01:04:33;6.50;;;5.90;;
14306;SDS011;7237;49.500;11.400;2023-04-15T01:07:00;6.83;;;6.20;;
14306;SDS011;7237;49.500;11.400;2023-04-15T01:09:27;6.07;;;5.57;;
14306;SDS011;7237;49.500;11.400;2023-04-15T01:11:56;6.30;;;5.70;;
14306;SDS011;7237;49.500;11.400;2023-04-15T01:14:23;5.73;;;5.23;;
14306;SDS011;7237;49.500;11.400;2023-04-15T01:16:51;6.60;;;6.00;;
14306;SDS011;7237;49.500;11.400;2023-04-15T01:19:18;6.50;;;5.90;;
14306;SDS011;7237;49.500;11.400;2023-04-15T01:21:46;5.80;;;5.30;;
14306;SDS011;7237;49.500;11.400;2023-04-15T01:24:13;7.43;;;5.63;;
14306;SDS011;7237;49.500;11.400;2023-04-15T01:26:42;7.20;;;6.07;;
14306;SDS011;7237;49.500;11.400;2023-04-15T01:29:10;6.80;;;6.07;;
14306;SDS011;7237;49.500;11.400;2023-04-15T01:31:38;6.23;;;5.67;;
14306;SDS011;7237;49.500;11.400;2023-04-15T01:34:05;6.93;;;6.20;;
14306;SDS011;7237;49.500;11.400;2023-04-15T01:36:32;5.80;;;5.30;;
14306;SDS011;7237;49.500;11.400;2023-04-15T01:38:59;6.73;;;6.00;;
14306;SDS011;7237;49.500;11.400;2023-04-15T01:41:26;8.83;;;6.20;;
14306;SDS011;7237;49.500;11.400;2023-04-15T01:43:55;8.50;;;6.27;;
14306;SDS011;7237;49.500;11.400;2023-04-15T01:46:22;6.70;;;6.10;;
14306;SDS011;7237;49.500;11.400;2023-04-15T01:48:49;7.73;;;7.03;;
14306;SDS011;7237;49.500;11.400;2023-04-15T01:51:16;9.60;;;7.60;;
14306;SDS011;7237;49.500;11.400;2023-04-15T01:53:44;12.17;;;8.60;;
14306;SDS011;7237;49.500;11.400;2023-04-15T01:56:11;8.77;;;7.33;;
14306;SDS011;7237;49.500;11.400;2023-04-15T01:58:38;8.93;;;8.03;;
14306;SDS011;7237;49.500;11.400;2023-04-15T02:01:06;10.27;;;7.60;;
14306;SDS011;7237;49.500;11.400;2023-04-15T02:03:34;9.00;;;7.97;;
14306;SDS011;7237;49.500;11.400;2023-04-15T02:06:01;9.57;;;7.67;;
14306;SDS011;7237;49.500;11.400;2023-04-15T02:08:30;11.23;;;8.03;;
14306;SDS011;7237;49.500;11.400;2023-04-15T02:10:57;10.43;;;8.07;;
14306;SDS011;7237;49.500;11.400;2023-04-15T02:13:25;10.13;;;8.30;;
14306;SDS011;7237;49.500;11.400;2023-04-15T02:15:53;9.17;;;8.03;;
14306;SDS011;7237;49.500;11.400;2023-04-15T02:18:22;8.40;;;7.07;;
14306;SDS011;7237;49.500;11.400;2023-04-15T02:20:49;6.87;;;6.17;;
14306;SDS011;7237;49.500;11.400;2023-04-15T02:23:17;7.77;;;7.07;;
14306;SDS011;7237;49.500;11.400;2023-04-15T02:25:44;7.63;;;6.83;;
14306;SDS011;7237;49.500;11.400;2023-04-15T02:28:11;7.60;;;6.80;;
14306;SDS011;7237;49.500;11.400;2023-04-15T02:30:38;6.83;;;6.13;;
14306;SDS011;7237;49.500;11.400;2023-04-15T02:33:05;7.00;;;5.63;;
14306;SDS011;7237;49.500;11.400;2023-04-15T02:35:34;6.57;;;5.63;;
14306;SDS011;7237;49.500;11.400;2023-04-15T02:38:03;6.70;;;6.10;;
14306;SDS011;7237;49.500;11.400;2023-04-15T02:40:30;6.20;;;5.60;;
14306;SDS011;7237;49.500;11.400;2023-04-15T02:42:57;6.57;;;5.97;;
14306;SDS011;7237;49.500;11.400;2023-04-15T02:45:24;9.27;;;7.80;;
14306;SDS011;7237;49.500;11.400;2023-04-15T02:47:52;8.33;;;7.53;;
14306;SDS011;7237;49.500;11.400;2023-04-15T02:50:19;6.90;;;6.20;;
14306;SDS011;7237;49.500;11.400;2023-04-15T02:52:48;6.50;;;5.43;;
14306;SDS011;7237;49.500;11.400;2023-04-15T02:55:16;6.40;;;5.80;;
14306;SDS011;7237;49.500;11.400;2023-04-15T02:57:43;6.03;;;5.43;;
14306;SDS011;7237;49.500;11.400;2023-04-15T03:00:10;5.70;;;5.17;;
14306;SDS011;7237;49.500;11.400;2023-04-15T03:02:38;5.60;;;5.10;;
14306;SDS011;7237;49.500;11.400;2023-04-15T03:05:06;6.30;;;5.70;;
14306;SDS011;7237;49.500;11.400;2023-04-15T03:07:33;5.77;;;5.17;;
14306;SDS011;7237;49.500;11.400;2023-04-15T03:10:02;5.90;;;5.40;;
14306;SDS011;7237;49.500;11.400;2023-04-15T03:12:29;5.90;;;5.40;;
14306;SDS011;7237;49.500;11.400;2023-04-15T03:14:56;5.83;;;5.33;;
14306;SDS011;7237;49.500;11.400;2023-04-15T03:17:24;5.40;;;5.00;;
14306;SDS011;7237;49.500;11.400;2023-04-15T03:19:51;6.07;;;5.57;;
14306;SDS011;7237;49.500;11.400;2023-04-15T03:22:18;6.10;;;5.20;;
14306;SDS011;7237;49.500;11.400;2023-04-15T03:24:45;5.00;;;4.50;;
14306;SDS011;7237;49.500;11.400;2023-04-15T03:27:13;5.43;;;5.03;;
14306;SDS011;7237;49.500;11.400;2023-04-15T03:29:40;5.77;;;5.17;;
14306;SDS011;7237;49.500;11.400;2023-04-15T03:32:07;5.33;;;4.63;;
14306;SDS011;7237;49.500;11.400;2023-04-15T03:34:34;5.43;;;4.93;;
14306;SDS011;7237;49.500;11.400;2023-04-15T03:37:02;5.67;;;5.17;;
14306;SDS011;7237;49.500;11.400;2023-04-15T03:39:29;5.77;;;5.00;;
14306;SDS011;7237;49.500;11.400;2023-04-15T03:41:56;5.47;;;4.97;;
14306;SDS011;7237;49.500;11.400;2023-04-15T03:44:25;5.60;;;5.00;;
14306;SDS011;7237;49.500;11.400;2023-04-15T03:46:52;5.03;;;4.63;;
14306;SDS011;7237;49.500;11.400;2023-04-15T03:49:19;4.93;;;4.53;;
14306;SDS011;7237;49.500;11.400;2023-04-15T03:51:47;5.10;;;4.60;;
14306;SDS011;7237;49.500;11.400;2023-04-15T03:54:14;5.63;;;5.13;;
14306;SDS011;7237;49.500;11.400;2023-04-15T03:56:41;5.43;;;5.03;;
14306;SDS011;7237;49.500;11.400;2023-04-15T03:59:08;4.90;;;4.40;;
14306;SDS011;7237;49.500;11.400;2023-04-15T04:01:37;6.43;;;5.23;;
14306;SDS011;7237;49.500;11.400;2023-04-15T04:04:04;5.40;;;5.00;;
14306;SDS011;7237;49.500;11.400;2023-04-15T04:06:31;5.40;;;4.90;;
14306;SDS011;7237;49.500;11.400;2023-04-15T04:08:58;6.47;;;5.13;;
14306;SDS011;7237;49.500;11.400;2023-04-15T04:11:25;5.23;;;4.73;;
14306;SDS011;7237;49.500;11.400;2023-04-15T04:13:53;6.63;;;5.27;;
14306;SDS011;7237;49.500;11.400;2023-04-15T04:16:20;6.57;;;5.73;;
14306;SDS011;7237;49.500;11.400;2023-04-15T04:18:48;7.00;;;5.00;;
14306;SDS011;7237;49.500;11.400;2023-04-15T04:21:15;5.63;;;4.93;;
14306;SDS011;7237;49.500;11.400;2023-04-15T04:23:42;4.70;;;4.30;;
14306;SDS011;7237;49.500;11.400;2023-04-15T04:26:10;5.43;;;4.93;;
14306;SDS011;7237;49.500;11.400;2023-04-15T04:28:37;5.30;;;4.80;;
14306;SDS011;7237;49.500;11.400;2023-04-15T04:31:04;5.43;;;4.93;;
14306;SDS011;7237;49.500;11.400;2023-04-15T04:33:31;5.63;;;5.13;;
14306;SDS011;7237;49.500;11.400;2023-04-15T04:36:00;5.40;;;4.63;;
14306;SDS011;7237;49.500;11.400;2023-04-15T04:38:27;4.80;;;4.40;;
14306;SDS011;7237;49.500;11.400;2023-04-15T04:40:54;4.73;;;4.33;;
14306;SDS011;7237;49.500;11.400;2023-04-15T04:43:21;6.13;;;5.13;;
14306;SDS011;7237;49.500;11.400;2023-04-15T04:45:48;5.53;;;4.50;;
14306;SDS011;7237;49.500;11.400;2023-04-15T04:48:16;4.83;;;4.43;;
14306;SDS011;7237;49.500;11.400;2023-04-15T04:50:43;4.93;;;3.90;;
14306;SDS011;7237;49.500;11.400;2023-04-15T04:53:12;4.93;;;4.43;;
14306;SDS011;7237;49.500;11.400;2023-04-15T04:55:39;5.03;;;4.60;;
14306;SDS011;7237;49.500;11.400;2023-04-15T04:58:06;4.83;;;4.40;;
14306;SDS011;7237;49.500;11.400;2023-04-15T05:00:33;5.10;;;4.70;;
14306;SDS011;7237;49.500;11.400;2023-04-15T05:03:01;4.80;;;4.40;;
14306;SDS011;7237;49.500;11.400;2023-04-15T05:05:29;5.03;;;4.50;;
14306;SDS011;7237;49.500;11.400;2023-04-15T05:07:56;4.97;;;4.47;;
14306;SDS011;7237;49.500;11.400;2023-04-15T05:10:24;4.20;;;3.90;;
14306;SDS011;7237;49.500;11.400;2023-04-15T05:12:51;4.20;;;3.80;;
14306;SDS011;7237;49.500;11.400;2023-04-15T05:15:18;6.83;;;4.37;;
14306;SDS011;7237;49.500;11.400;2023-04-15T05:17:45;4.77;;;4.07;;
14306;SDS011;7237;49.500;11.400;2023-04-15T05:20:12;4.57;;;4.03;;
14306;SDS011;7237;49.500;11.400;2023-04-15T05:22:39;4.53;;;4.13;;
14306;SDS011;7237;49.500;11.400;2023-04-15T05:25:07;7.67;;;4.83;;
14306;SDS011;7237;49.500;11.400;2023-04-15T05:27:35;6.13;;;4.73;;
14306;SDS011;7237;49.500;11.400;2023-04-15T05:30:02;4.00;;;3.60;;
14306;SDS011;7237;49.500;11.400;2023-04-15T05:32:30;4.57;;;4.13;;
14306;SDS011;7237;49.500;11.400;2023-04-15T05:34:57;4.03;;;3.73;;
14306;SDS011;7237;49.500;11.400;2023-04-15T05:37:24;4.60;;;4.17;;
14306;SDS011;7237;49.500;11.400;2023-04-15T05:39:51;4.50;;;4.13;;
14306;SDS011;7237;49.500;11.400;2023-04-15T05:42:18;4.73;;;4.33;;
14306;SDS011;7237;49.500;11.400;2023-04-15T05:44:46;5.00;;;4.00;;
14306;SDS011;7237;49.500;11.400;2023-04-15T05:47:13;4.67;;;4.17;;
14306;SDS011;7237;49.500;11.400;2023-04-15T05:49:41;15.83;;;11.93;;
14306;SDS011;7237;49.500;11.400;2023-04-15T05:52:08;5.27;;;4.37;;
14306;SDS011;7237;49.500;11.400;2023-04-15T05:54:35;4.90;;;4.23;;
14306;SDS011;7237;49.500;11.400;2023-04-15T05:57:02;5.17;;;4.57;;
14306;SDS011;7237;49.500;11.400;2023-04-15T05:59:29;4.90;;;4.40;;
14306;SDS011;7237;49.500;11.400;2023-04-15T06:01:58;5.17;;;4.20;;
14306;SDS011;7237;49.500;11.400;2023-04-15T06:04:25;5.97;;;4.37;;
14306;SDS011;7237;49.500;11.400;2023-04-15T06:06:52;4.90;;;4.50;;
14306;SDS011;7237;49.500;11.400;2023-04-15T06:09:19;7.23;;;4.43;;
14306;SDS011;7237;49.500;11.400;2023-04-15T06:11:46;4.80;;;4.40;;
14306;SDS011;7237;49.500;11.400;2023-04-15T06:14:13;4.80;;;4.37;;
14306;SDS011;7237;49.500;11.400;2023-04-15T06:16:40;6.07;;;4.33;;
14306;SDS011;7237;49.500;11.400;2023-04-15T06:19:09;5.03;;;4.53;;
14306;SDS011;7237;49.500;11.400;2023-04-15T06:21:36;4.30;;;3.90;;
14306;SDS011;7237;49.500;11.400;2023-04-15T06:24:03;4.77;;;4.37;;
14306;SDS011;7237;49.500;11.400;2023-04-15T06:26:30;6.87;;;5.70;;
14306;SDS011;7237;49.500;11.400;2023-04-15T06:28:57;4.97;;;4.57;;
14306;SDS011;7237;49.500;11.400;2023-04-15T06:31:25;3.97;;;3.67;;
14306;SDS011;7237;49.500;11.400;2023-04-15T06:33:52;4.57;;;4.17;;
14306;SDS011;7237;49.500;11.400;2023-04-15T06:36:20;9.07;;;7.63;;
14306;SDS011;7237;49.500;11.400;2023-04-15T06:38:47;10.80;;;9.67;;
14306;SDS011;7237;49.500;11.400;2023-04-15T06:41:14;6.80;;;6.20;;
14306;SDS011;7237;49.500;11.400;2023-04-15T06:43:41;5.60;;;4.90;;
14306;SDS011;7237;49.500;11.400;2023-04-15T06:46:08;4.60;;;4.20;;
14306;SDS011;7237;49.500;11.400;2023-04-15T06:48:35;6.03;;;4.00;;
14306;SDS011;7237;49.500;11.400;2023-04-15T06:51:02;5.30;;;4.67;;
14306;SDS011;7237;49.500;11.400;2023-04-15T06:53:31;4.30;;;3.83;;
14306;SDS011;7237;49.500;11.400;2023-04-15T06:55:59;4.80;;;4.30;;
14306;SDS011;7237;49.500;11.400;2023-04-15T06:58:26;4.23;;;3.87;;
14306;SDS011;7237;49.500;11.400;2023-04-15T07:00:53;4.53;;;4.13;;
14306;SDS011;7237;49.500;11.400;2023-04-15T07:03:20;4.30;;;3.90;;
14306;SDS011;7237;49.500;11.400;2023-04-15T07:05:47;5.03;;;4.47;;
14306;SDS011;7237;49.500;11.400;2023-04-15T07:08:14;4.47;;;3.63;;
14306;SDS011;7237;49.500;11.400;2023-04-15T07:10:43;3.80;;;3.50;;
14306;SDS011;7237;49.500;11.400;2023-04-15T07:13:10;4.23;;;3.83;;
14306;SDS011;7237;49.500;11.400;2023-04-15T07:15:37;4.17;;;3.87;;
14306;SDS011;7237;49.500;11.400;2023-04-15T07:18:04;4.30;;;3.90;;
14306;SDS011;7237;49.500;11.400;2023-04-15T07:20:31;7.00;;;5.63;;
14306;SDS011;7237;49.500;11.400;2023-04-15T07:22:58;4.63;;;4.20;;
14306;SDS011;7237;49.500;11.400;2023-04-15T07:25:25;5.00;;;4.30;;
14306;SDS011;7237;49.500;11.400;2023-04-15T07:27:54;4.33;;;3.93;;
14306;SDS011;7237;49.500;11.400;2023-04-15T07:30:21;5.53;;;4.70;;
14306;SDS011;7237;49.500;11.400;2023-04-15T07:32:48;5.40;;;4.90;;
14306;SDS011;7237;49.500;11.400;2023-04-15T07:35:15;4.37;;;3.97;;
14306;SDS011;7237;49.500;11.400;2023-04-15T07:37:45;4.27;;;3.87;;
14306;SDS011;7237;49.500;11.400;2023-04-15T07:40:12;4.40;;;4.00;;
14306;SDS011;7237;49.500;11.400;2023-04-15T07:42:40;4.30;;;3.90;;
14306;SDS011;7237;49.500;11.400;2023-04-15T07:45:09;3.97;;;3.67;;
14306;SDS011;7237;49.500;11.400;2023-04-15T07:47:36;4.53;;;4.10;;
14306;SDS011;7237;49.500;11.400;2023-04-15T07:50:05;4.40;;;4.00;;
14306;SDS011;7237;49.500;11.400;2023-04-15T07:52:32;4.20;;;3.80;;
14306;SDS011;7237;49.500;11.400;2023-04-15T07:55:03;4.00;;;3.60;;
14306;SDS011;7237;49.500;11.400;2023-04-15T07:57:31;4.00;;;3.70;;
14306;SDS011;7237;49.500;11.400;2023-04-15T07:59:58;4.70;;;3.90;;
14306;SDS011;7237;49.500;11.400;2023-04-15T08:02:27;3.73;;;3.43;;
14306;SDS011;7237;49.500;11.400;2023-04-15T08:04:54;3.90;;;3.50;;
14306;SDS011;7237;49.500;11.400;2023-04-15T08:07:21;3.80;;;3.20;;
14306;SDS011;7237;49.500;11.400;2023-04-15T08:09:49;3.80;;;3.50;;
14306;SDS011;7237;49.500;11.400;2023-04-15T08:12:16;5.00;;;4.60;;
14306;SDS011;7237;49.500;11.400;2023-04-15T08:14:43;4.30;;;3.53;;
14306;SDS011;7237;49.500;11.400;2023-04-15T08:17:10;4.37;;;4.03;;
14306;SDS011;7237;49.500;11.400;2023-04-15T08:19:39;3.83;;;3.53;;
14306;SDS011;7237;49.500;11.400;2023-04-15T08:22:06;4.47;;;3.97;;
14306;SDS011;7237;49.500;11.400;2023-04-15T08:24:33;4.53;;;4.13;;
14306;SDS011;7237;49.500;11.400;2023-04-15T08:27:00;4.37;;;3.97;;
14306;SDS011;7237;49.500;11.400;2023-04-15T08:29:29;5.03;;;4.13;;
14306;SDS011;7237;49.500;11.400;2023-04-15T08:31:56;4.20;;;3.83;;
14306;SDS011;7237;49.500;11.400;2023-04-15T08:34:25;3.83;;;3.53;;
14306;SDS011;7237;49.500;11.400;2023-04-15T08:36:53;3.93;;;3.57;;
14306;SDS011;7237;49.500;11.400;2023-04-15T08:39:20;4.03;;;3.57;;
14306;SDS011;7237;49.500;11.400;2023-04-15T08:41:50;3.57;;;3.27;;
14306;SDS011;7237;49.500;11.400;2023-04-15T08:44:18;4.60;;;4.20;;
14306;SDS011;7237;49.500;11.400;2023-04-15T08:46:45;4.93;;;3.20;;
14306;SDS011;7237;49.500;11.400;2023-04-15T08:49:13;3.40;;;3.20;;
14306;SDS011;7237;49.500;11.400;2023-04-15T08:51:41;3.70;;;3.40;;
14306;SDS011;7237;49.500;11.400;2023-04-15T08:54:10;3.50;;;3.20;;
14306;SDS011;7237;49.500;11.400;2023-04-15T08:56:38;3.30;;;3.00;;
14306;SDS011;7237;49.500;11.400;2023-04-15T08:59:05;3.37;;;2.70;;
14306;SDS011;7237;49.500;11.400;2023-04-15T09:01:33;3.50;;;3.20;;
14306;SDS011;7237;49.500;11.400;2023-04-15T09:04:01;2.97;;;2.77;;
14306;SDS011;7237;49.500;11.400;2023-04-15T09:06:30;2.70;;;2.50;;
14306;SDS011;7237;49.500;11.400;2023-04-15T09:08:57;2.50;;;2.30;;
14306;SDS011;7237;49.500;11.400;2023-04-15T09:11:26;2.40;;;2.30;;
14306;SDS011;7237;49.500;11.400;2023-04-15T09:13:53;2.87;;;2.63;;
14306;SDS011;7237;49.500;11.400;2023-04-15T09:16:20;2.77;;;2.57;;
14306;SDS011;7237;49.500;11.400;2023-04-15T09:18:48;2.50;;;2.30;;
14306;SDS011;7237;49.500;11.400;2023-04-15T09:21:15;2.70;;;2.50;;
14306;SDS011;7237;49.500;11.400;2023-04-15T09:23:53;2.70;;;2.50;;
14306;SDS011;7237;49.500;11.400;2023-04-15T09:26:30;2.60;;;2.40;;
14306;SDS011;7237;49.500;11.400;2023-04-15T09:29:01;2.73;;;2.10;;
14306;SDS011;7237;49.500;11.400;2023-04-15T09:31:28;2.70;;;2.50;;
14306;SDS011;7237;49.500;11.400;2023-04-15T09:33:55;2.00;;;1.80;;
14306;SDS011;7237;49.500;11.400;2023-04-15T09:36:22;1.90;;;1.80;;
14306;SDS011;7237;49.500;11.400;2023-04-15T09:38:53;2.20;;;2.00;;
14306;SDS011;7237;49.500;11.400;2023-04-15T09:41:21;1.93;;;1.83;;
14306;SDS011;7237;49.500;11.400;2023-04-15T09:43:49;2.40;;;2.20;;
14306;SDS011;7237;49.500;11.400;2023-04-15T09:46:16;2.30;;;2.07;;
14306;SDS011;7237;49.500;11.400;2023-04-15T09:48:43;2.27;;;2.17;;
14306;SDS011;7237;49.500;11.400;2023-04-15T09:51:10;2.27;;;2.07;;
14306;SDS011;7237;49.500;11.400;2023-04-15T09:53:38;2.10;;;2.00;;
14306;SDS011;7237;49.500;11.400;2023-04-15T09:56:05;1.90;;;1.80;;
14306;SDS011;7237;49.500;11.400;2023-04-15T09:58:33;2.00;;;1.90;;
14306;SDS011;7237;49.500;11.400;2023-04-15T10:01:04;2.30;;;1.87;;
14306;SDS011;7237;49.500;11.400;2023-04-15T10:03:32;2.37;;;2.17;;
14306;SDS011;7237;49.500;11.400;2023-04-15T10:06:00;2.13;;;2.03;;
14306;SDS011;7237;49.500;11.400;2023-04-15T10:08:30;1.80;;;1.70;;
14306;SDS011;7237;49.500;11.400;2023-04-15T10:10:59;1.90;;;1.80;;
14306;SDS011;7237;49.500;11.400;2023-04-15T10:13:28;2.90;;;1.83;;
14306;SDS011;7237;49.500;11.400;2023-04-15T10:15:57;1.50;;;1.40;;
14306;SDS011;7237;49.500;11.400;2023-04-15T10:18:27;1.70;;;1.60;;
14306;SDS011;7237;49.500;11.400;2023-04-15T10:20:54;2.17;;;2.03;;
14306;SDS011;7237;49.500;11.400;2023-04-15T10:23:21;1.93;;;1.70;;
14306;SDS011;7237;49.500;11.400;2023-04-15T10:25:49;1.90;;;1.80;;
14306;SDS011;7237;49.500;11.400;2023-04-15T10:28:17;1.70;;;1.60;;
14306;SDS011;7237;49.500;11.400;2023-04-15T10:30:46;1.57;;;1.47;;
14306;SDS011;7237;49.500;11.400;2023-04-15T10:33:14;2.07;;;1.73;;
14306;SDS011;7237;49.500;11.400;2023-04-15T10:35:43;1.80;;;1.70;;
14306;SDS011;7237;49.500;11.400;2023-04-15T10:38:30;1.60;;;1.50;;
14306;SDS011;7237;49.500;11.400;2023-04-15T10:41:10;1.30;;;1.20;;
14306;SDS011;7237;49.500;11.400;2023-04-15T10:43:38;1.77;;;1.67;;
14306;SDS011;7237;49.500;11.400;2023-04-15T10:46:05;1.50;;;1.40;;
14306;SDS011;7237;49.500;11.400;2023-04-15T10:48:32;1.53;;;1.43;;
14306;SDS011;7237;49.500;11.400;2023-04-15T10:51:00;1.67;;;1.50;;
14306;SDS011;7237;49.500;11.400;2023-04-15T10:53:29;1.67;;;1.57;;
14306;SDS011;7237;49.500;11.400;2023-04-15T10:55:56;1.70;;;1.60;;
14306;SDS011;7237;49.500;11.400;2023-04-15T10:58:23;1.67;;;1.57;;
14306;SDS011;7237;49.500;11.400;2023-04-15T11:00:52;1.90;;;1.80;;
14306;SDS011;7237;49.500;11.400;2023-04-15T11:03:33;1.70;;;1.60;;
14306;SDS011;7237;49.500;11.400;2023-04-15T11:06:03;2.60;;;1.50;;
14306;SDS011;7237;49.500;11.400;2023-04-15T11:11:16;3.23;;;1.83;;
14306;SDS011;7237;49.500;11.400;2023-04-15T11:13:46;1.77;;;1.67;;
14306;SDS011;7237;49.500;11.400;2023-04-15T11:16:13;4.93;;;3.83;;
14306;SDS011;7237;49.500;11.400;2023-04-15T11:18:41;1.70;;;1.60;;
14306;SDS011;7237;49.500;11.400;2023-04-15T11:21:09;1.67;;;1.57;;
14306;SDS011;7237;49.500;11.400;2023-04-15T11:23:37;1.57;;;1.47;;
14306;SDS011;7237;49.500;11.400;2023-04-15T11:26:05;1.70;;;1.60;;
14306;SDS011;7237;49.500;11.400;2023-04-15T11:28:36;1.80;;;1.70;;
14306;SDS011;7237;49.500;11.400;2023-04-15T11:31:07;1.63;;;1.53;;
14306;SDS011;7237;49.500;11.400;2023-04-15T11:33:35;2.13;;;1.87;;
14306;SDS011;7237;49.500;11.400;2023-04-15T11:36:03;2.30;;;2.10;;
14306;SDS011;7237;49.500;11.400;2023-04-15T11:38:31;2.00;;;1.90;;
14306;SDS011;7237;49.500;11.400;2023-04-15T11:41:01;1.80;;;1.70;;
14306;SDS011;7237;49.500;11.400;2023-04-15T11:43:28;1.97;;;1.87;;
14306;SDS011;7237;49.500;11.400;2023-04-15T11:46:00;1.70;;;1.60;;
14306;SDS011;7237;49.500;11.400;2023-04-15T11:48:27;2.00;;;1.90;;
14306;SDS011;7237;49.500;11.400;2023-04-15T11:50:56;1.50;;;1.40;;
14306;SDS011;7237;49.500;11.400;2023-04-15T11:53:23;1.70;;;1.60;;
14306;SDS011;7237;49.500;11.400;2023-04-15T11:55:52;2.07;;;1.70;;
14306;SDS011;7237;49.500;11.400;2023-04-15T11:58:20;1.80;;;1.70;;
14306;SDS011;7237;49.500;11.400;2023-04-15T12:00:48;1.80;;;1.67;;
14306;SDS011;7237;49.500;11.400;2023-04-15T12:03:17;1.77;;;1.67;;
14306;SDS011;7237;49.500;11.400;2023-04-15T12:06:06;11.30;;;10.07;;
14306;SDS011;7237;49.500;11.400;2023-04-15T12:08:56;2.00;;;1.90;;
14306;SDS011;7237;49.500;11.400;2023-04-15T12:14:11;1.30;;;1.20;;
14306;SDS011;7237;49.500;11.400;2023-04-15T12:16:39;1.53;;;1.43;;
14306;SDS011;7237;49.500;11.400;2023-04-15T12:19:08;1.80;;;1.70;;
14306;SDS011;7237;49.500;11.400;2023-04-15T12:21:37;1.73;;;1.63;;
14306;SDS011;7237;49.500;11.400;2023-04-15T12:24:04;2.30;;;2.17;;
14306;SDS011;7237;49.500;11.400;2023-04-15T12:26:33;1.80;;;1.70;;
14306;SDS011;7237;49.500;11.400;2023-04-15T12:29:01;1.63;;;1.50;;
14306;SDS011;7237;49.500;11.400;2023-04-15T12:31:29;4.27;;;3.97;;
14306;SDS011;7237;49.500;11.400;2023-04-15T12:33:56;3.63;;;3.03;;
14306;SDS011;7237;49.500;11.400;2023-04-15T12:36:24;1.60;;;1.50;;
14306;SDS011;7237;49.500;11.400;2023-04-15T12:38:52;1.80;;;1.70;;
14306;SDS011;7237;49.500;11.400;2023-04-15T12:41:19;2.00;;;1.90;;
14306;SDS011;7237;49.500;11.400;2023-04-15T12:43:48;7.30;;;5.57;;
14306;SDS011;7237;49.500;11.400;2023-04-15T12:46:15;2.73;;;2.50;;
14306;SDS011;7237;49.500;11.400;2023-04-15T12:48:44;1.87;;;1.77;;
14306;SDS011;7237;49.500;11.400;2023-04-15T12:51:11;4.37;;;3.97;;
14306;SDS011;7237;49.500;11.400;2023-04-15T12:53:38;1.80;;;1.70;;
14306;SDS011;7237;49.500;11.400;2023-04-15T12:56:05;2.13;;;1.93;;
14306;SDS011;7237;49.500;11.400;2023-04-15T12:58:32;3.57;;;3.27;;
14306;SDS011;7237;49.500;11.400;2023-04-15T13:01:00;1.47;;;1.40;;
14306;SDS011;7237;49.500;11.400;2023-04-15T13:03:27;1.63;;;1.53;;
14306;SDS011;7237;49.500;11.400;2023-04-15T13:05:55;2.30;;;2.10;;
14306;SDS011;7237;49.500;11.400;2023-04-15T13:08:23;1.57;;;1.47;;
14306;SDS011;7237;49.500;11.400;2023-04-15T13:10:50;1.40;;;1.30;;
14306;SDS011;7237;49.500;11.400;2023-04-15T13:13:17;1.23;;;1.20;;
14306;SDS011;7237;49.500;11.400;2023-04-15T13:15:44;1.30;;;1.30;;
14306;SDS011;7237;49.500;11.400;2023-04-15T13:18:11;1.40;;;1.30;;
14306;SDS011;7237;49.500;11.400;2023-04-15T13:20:38;1.40;;;1.30;;
14306;SDS011;7237;49.500;11.400;2023-04-15T13:23:07;1.60;;;1.47;;
14306;SDS011;7237;49.500;11.400;2023-04-15T13:25:34;1.10;;;1.10;;
14306;SDS011;7237;49.500;11.400;2023-04-15T13:28:01;1.77;;;1.30;;
14306;SDS011;7237;49.500;11.400;2023-04-15T13:30:28;1.00;;;1.00;;
14306;SDS011;7237;49.500;11.400;2023-04-15T13:32:55;1.00;;;1.00;;
14306;SDS011;7237;49.500;11.400;2023-04-15T13:35:22;1.53;;;1.43;;
14306;SDS011;7237;49.500;11.400;2023-04-15T13:37:49;1.20;;;1.20;;
14306;SDS011;7237;49.500;11.400;2023-04-15T13:40:18;1.63;;;1.40;;
14306;SDS011;7237;49.500;11.400;2023-04-15T13:42:45;1.20;;;1.20;;
14306;SDS011;7237;49.500;11.400;2023-04-15T13:45:12;1.13;;;1.10;;
14306;SDS011;7237;49.500;11.400;2023-04-15T13:47:40;1.00;;;1.00;;
14306;SDS011;7237;49.500;11.400;2023-04-15T13:50:07;1.00;;;1.00;;
14306;SDS011;7237;49.500;11.400;2023-04-15T13:52:34;1.10;;;1.10;;
14306;SDS011;7237;49.500;11.400;2023-04-15T13:55:02;1.00;;;1.00;;
14306;SDS011;7237;49.500;11.400;2023-04-15T13:57:30;1.43;;;1.33;;
14306;SDS011;7237;49.500;11.400;2023-04-15T13:59:57;1.20;;;1.20;;
14306;SDS011;7237;49.500;11.400;2023-04-15T14:02:24;1.10;;;1.10;;
14306;SDS011;7237;49.500;11.400;2023-04-15T14:04:51;0.90;;;0.90;;
14306;SDS011;7237;49.500;11.400;2023-04-15T14:07:18;1.10;;;1.10;;
14306;SDS011;7237;49.500;11.400;2023-04-15T14:09:45;1.40;;;1.30;;
14306;SDS011;7237;49.500;11.400;2023-04-15T14:12:13;1.20;;;1.20;;
14306;SDS011;7237;49.500;11.400;2023-04-15T14:14:41;1.30;;;1.20;;
14306;SDS011;7237;49.500;11.400;2023-04-15T14:17:08;1.33;;;1.23;;
14306;SDS011;7237;49.500;11.400;2023-04-15T14:19:35;1.30;;;1.20;;
14306;SDS011;7237;49.500;11.400;2023-04-15T14:22:03;1.30;;;1.20;;
14306;SDS011;7237;49.500;11.400;2023-04-15T14:24:30;1.00;;;1.00;;
14306;SDS011;7237;49.500;11.400;2023-04-15T14:26:57;1.40;;;1.30;;
14306;SDS011;7237;49.500;11.400;2023-04-15T14:29:24;1.53;;;1.23;;
14306;SDS011;7237;49.500;11.400;2023-04-15T14:31:52;1.10;;;1.10;;
14306;SDS011;7237;49.500;11.400;2023-04-15T14:34:21;1.20;;;1.20;;
14306;SDS011;7237;49.500;11.400;2023-04-15T14:36:49;2.47;;;1.30;;
14306;SDS011;7237;49.500;11.400;2023-04-15T14:39:16;1.17;;;1.10;;
14306;SDS011;7237;49.500;11.400;2023-04-15T14:41:43;1.17;;;1.13;;
14306;SDS011;7237;49.500;11.400;2023-04-15T14:44:10;1.70;;;1.30;;
14306;SDS011;7237;49.500;11.400;2023-04-15T14:46:37;1.77;;;1.30;;
14306;SDS011;7237;49.500;11.400;2023-04-15T14:49:07;1.67;;;1.57;;
14306;SDS011;7237;49.500;11.400;2023-04-15T14:51:34;3.23;;;1.40;;
14306;SDS011;7237;49.500;11.400;2023-04-15T14:54:01;1.80;;;1.70;;
14306;SDS011;7237;49.500;11.400;2023-04-15T14:56:28;1.63;;;1.53;;